createdAt,value
2018-07-31T00:00:41.770Z,97595.84
2018-07-31T00:03:10.942Z,97595.36
2018-07-31T00:05:40.171Z,97592.16
2018-07-31T00:08:09.142Z,97589.58
2018-07-31T00:10:38.455Z,97592.12
2018-07-31T00:13:07.642Z,97590.44
2018-07-31T00:15:36.823Z,97592.73
2018-07-31T00:18:05.942Z,97602.11
2018-07-31T00:20:34.844Z,97600.44
2018-07-31T00:23:03.822Z,97596.55
2018-07-31T00:25:32.799Z,97597.52
2018-07-31T00:28:01.984Z,97593.17
2018-07-31T00:30:31.341Z,97591.84
2018-07-31T00:33:00.827Z,97589.67
2018-07-31T00:35:29.790Z,97591.13
2018-07-31T00:37:59.068Z,97597.70
2018-07-31T00:40:28.363Z,97593.26
2018-07-31T00:42:57.173Z,97587.05
2018-07-31T00:45:26.170Z,97586.95
2018-07-31T00:47:55.490Z,97586.81
2018-07-31T00:50:24.674Z,97585.56
2018-07-31T00:52:53.970Z,97586.05
2018-07-31T00:55:23.271Z,97594.22
2018-07-31T00:57:52.370Z,97595.66
2018-07-31T01:00:21.485Z,97593.89
2018-07-31T01:02:50.361Z,97592.78
2018-07-31T01:05:19.774Z,97593.45
2018-07-31T01:07:48.954Z,97592.94
2018-07-31T01:10:18.246Z,97593.41
2018-07-31T01:12:47.305Z,97596.66
2018-07-31T01:15:16.647Z,97602.50
2018-07-31T01:17:45.806Z,97599.82
2018-07-31T01:20:14.847Z,97594.36
2018-07-31T01:22:44.051Z,97591.48
2018-07-31T01:25:13.191Z,97591.78
2018-07-31T01:27:42.526Z,97587.19
2018-07-31T01:30:11.473Z,97585.84
2018-07-31T01:32:40.333Z,97588.16
2018-07-31T01:35:09.534Z,97589.49
2018-07-31T01:37:38.493Z,97588.78
2018-07-31T01:40:07.655Z,97589.20
2018-07-31T01:42:36.761Z,97585.47
2018-07-31T01:45:05.790Z,97582.94
2018-07-31T01:47:34.984Z,97588.16
2018-07-31T01:50:04.246Z,97584.08
2018-07-31T01:52:33.486Z,97589.11
2018-07-31T01:55:02.641Z,97589.88
2018-07-31T01:57:31.462Z,97589.83
2018-07-31T02:00:00.644Z,97595.80
2018-07-31T02:02:29.702Z,97589.19
2018-07-31T02:04:58.942Z,97592.63
2018-07-31T02:07:28.084Z,97589.72
2018-07-31T02:09:57.102Z,97587.71
2018-07-31T02:12:26.105Z,97584.60
2018-07-31T02:14:55.235Z,97592.97
2018-07-31T02:17:24.425Z,97592.07
2018-07-31T02:19:53.519Z,97589.58
2018-07-31T02:22:22.610Z,97589.62
2018-07-31T02:24:51.748Z,97585.72
2018-07-31T02:27:21.004Z,97592.78
2018-07-31T02:29:55.173Z,97589.67
2018-07-31T02:32:24.519Z,97583.84
2018-07-31T02:34:53.661Z,97586.28
2018-07-31T02:37:22.582Z,97586.63
2018-07-31T02:39:51.744Z,97581.65
2018-07-31T02:42:20.875Z,97587.23
2018-07-31T02:44:49.992Z,97593.56
2018-07-31T02:47:19.302Z,97591.11
2018-07-31T02:49:48.882Z,97593.80
2018-07-31T02:52:18.170Z,97587.67
2018-07-31T02:54:47.029Z,97591.06
2018-07-31T02:57:16.153Z,97593.70
2018-07-31T02:59:45.335Z,97598.58
2018-07-31T03:02:14.223Z,97589.44
2018-07-31T03:04:43.340Z,97595.94
2018-07-31T03:07:12.454Z,97594.36
2018-07-31T03:09:41.754Z,97600.48
2018-07-31T03:12:10.938Z,97598.23
2018-07-31T03:14:39.907Z,97601.77
2018-07-31T03:17:09.139Z,97603.62
2018-07-31T03:19:38.265Z,97611.08
2018-07-31T03:22:07.369Z,97615.53
2018-07-31T03:24:36.539Z,97617.86
2018-07-31T03:27:05.662Z,97610.62
2018-07-31T03:29:34.612Z,97614.67
2018-07-31T03:32:03.727Z,97617.55
2018-07-31T03:34:32.955Z,97615.17
2018-07-31T03:37:02.107Z,97625.11
2018-07-31T03:39:31.314Z,97619.47
2018-07-31T03:42:00.497Z,97624.20
2018-07-31T03:44:29.786Z,97624.88
2018-07-31T03:46:59.132Z,97631.08
2018-07-31T03:49:28.462Z,97630.73
2018-07-31T03:51:57.329Z,97626.92
2018-07-31T03:54:26.373Z,97631.45
2018-07-31T03:56:55.566Z,97635.97
2018-07-31T03:59:24.746Z,97633.54
2018-07-31T04:01:53.970Z,97632.06
2018-07-31T04:04:23.191Z,97632.20
2018-07-31T04:06:52.194Z,97626.78
2018-07-31T04:09:21.318Z,97635.88
2018-07-31T04:11:50.643Z,97639.52
2018-07-31T04:14:19.875Z,97637.13
2018-07-31T04:16:48.990Z,97635.91
2018-07-31T04:19:17.891Z,97633.63
2018-07-31T04:21:47.155Z,97637.06
2018-07-31T04:24:16.622Z,97636.30
2018-07-31T04:26:45.489Z,97636.53
2018-07-31T04:29:14.618Z,97637.50
2018-07-31T04:31:43.880Z,97637.50
2018-07-31T04:34:12.885Z,97638.79
2018-07-31T04:36:42.086Z,97638.66
2018-07-31T04:39:12.622Z,97633.91
2018-07-31T04:41:41.614Z,97636.11
2018-07-31T04:44:10.754Z,97629.84
2018-07-31T04:46:39.703Z,97631.56
2018-07-31T04:49:08.601Z,97635.09
2018-07-31T04:51:37.863Z,97639.67
2018-07-31T04:54:06.987Z,97640.98
2018-07-31T04:56:35.944Z,97639.27
2018-07-31T04:59:05.127Z,97645.44
2018-07-31T05:01:34.414Z,97646.17
2018-07-31T05:04:03.366Z,97643.59
2018-07-31T05:06:32.454Z,97650.57
2018-07-31T05:09:01.706Z,97650.56
2018-07-31T05:11:31.031Z,97654.53
2018-07-31T05:14:00.149Z,97652.59
2018-07-31T05:16:29.333Z,97655.44
2018-07-31T05:18:58.178Z,97655.78
2018-07-31T05:21:27.275Z,97660.24
2018-07-31T05:23:56.426Z,97662.95
2018-07-31T05:26:25.602Z,97660.03
2018-07-31T05:28:54.757Z,97666.69
2018-07-31T05:31:24.087Z,97655.95
2018-07-31T05:33:53.526Z,97667.14
2018-07-31T05:36:22.420Z,97673.52
2018-07-31T05:38:51.254Z,97669.51
2018-07-31T05:41:20.482Z,97672.56
2018-07-31T05:43:49.559Z,97665.50
2018-07-31T05:46:18.787Z,97674.24
2018-07-31T05:48:48.040Z,97667.28
2018-07-31T05:51:17.278Z,97668.72
2018-07-31T05:53:46.111Z,97670.23
2018-07-31T05:56:15.368Z,97678.63
2018-07-31T05:58:44.394Z,97676.30
2018-07-31T06:01:13.358Z,97679.08
2018-07-31T06:03:42.447Z,97672.27
2018-07-31T06:06:11.588Z,97671.55
2018-07-31T06:08:41.924Z,97672.52
2018-07-31T06:11:10.946Z,97671.32
2018-07-31T06:13:40.405Z,97672.31
2018-07-31T06:16:09.501Z,97670.12
2018-07-31T06:18:38.698Z,97670.27
2018-07-31T06:21:08.519Z,97677.67
2018-07-31T06:23:38.047Z,97673.47
2018-07-31T06:26:07.458Z,97679.03
2018-07-31T06:28:36.350Z,97675.49
2018-07-31T06:31:05.627Z,97680.19
2018-07-31T06:33:35.147Z,97686.59
2018-07-31T06:36:04.208Z,97682.53
2018-07-31T06:38:33.290Z,97690.91
2018-07-31T06:41:02.583Z,97693.97
2018-07-31T06:43:31.806Z,97696.84
2018-07-31T06:46:00.992Z,97688.95
2018-07-31T06:48:30.182Z,97696.94
2018-07-31T06:50:59.020Z,97696.60
2018-07-31T06:53:27.820Z,97696.31
2018-07-31T06:55:56.944Z,97694.09
2018-07-31T06:58:25.855Z,97692.42
2018-07-31T07:00:55.087Z,97694.05
2018-07-31T07:03:23.944Z,97694.05
2018-07-31T07:05:53.126Z,97698.89
2018-07-31T07:08:22.308Z,97700.89
2018-07-31T07:10:51.607Z,97698.73
2018-07-31T07:13:20.907Z,97703.86
2018-07-31T07:15:50.040Z,97697.81
2018-07-31T07:18:19.146Z,97704.73
2018-07-31T07:20:48.277Z,97700.52
2018-07-31T07:23:17.214Z,97709.11
2018-07-31T07:25:46.286Z,97711.09
2018-07-31T07:28:15.518Z,97706.59
2018-07-31T07:30:44.694Z,97708.19
2018-07-31T07:33:13.686Z,97716.18
2018-07-31T07:35:42.493Z,97716.09
2018-07-31T07:38:11.337Z,97722.94
2018-07-31T07:40:40.546Z,97715.55
2018-07-31T07:43:09.752Z,97716.17
2018-07-31T07:45:38.933Z,97719.92
2018-07-31T07:48:08.178Z,97719.34
2018-07-31T07:50:37.464Z,97724.27
2018-07-31T07:53:06.669Z,97719.88
2018-07-31T07:55:35.647Z,97722.64
2018-07-31T07:58:04.973Z,97721.30
2018-07-31T08:00:34.067Z,97729.20
2018-07-31T08:03:03.321Z,97727.79
2018-07-31T08:05:32.130Z,97723.81
2018-07-31T08:08:01.313Z,97726.20
2018-07-31T08:10:30.530Z,97727.42
2018-07-31T08:12:59.700Z,97725.59
2018-07-31T08:15:28.509Z,97727.92
2018-07-31T08:17:57.387Z,97731.95
2018-07-31T08:20:26.565Z,97735.42
2018-07-31T08:22:55.912Z,97734.28
2018-07-31T08:25:25.928Z,97736.53
2018-07-31T08:27:55.263Z,97736.97
2018-07-31T08:30:24.322Z,97737.11
2018-07-31T08:32:53.468Z,97743.09
2018-07-31T08:35:22.759Z,97737.84
2018-07-31T08:37:51.605Z,97735.23
2018-07-31T08:40:20.798Z,97736.13
2018-07-31T08:42:50.055Z,97735.42
2018-07-31T08:45:19.250Z,97725.80
2018-07-31T08:47:48.454Z,97727.49
2018-07-31T08:50:17.464Z,97722.76
2018-07-31T08:52:46.780Z,97726.25
2018-07-31T08:55:15.797Z,97721.44
2018-07-31T08:57:45.089Z,97719.45
2018-07-31T09:00:14.335Z,97723.25
2018-07-31T09:02:43.588Z,97714.63
2018-07-31T09:05:12.751Z,97720.65
2018-07-31T09:07:41.602Z,97719.45
2018-07-31T09:10:10.908Z,97712.20
2018-07-31T09:12:40.054Z,97708.96
2018-07-31T09:15:09.498Z,97704.84
2018-07-31T09:17:38.865Z,97709.63
2018-07-31T09:20:07.994Z,97709.72
2018-07-31T09:22:37.220Z,97714.03
2018-07-31T09:25:06.687Z,97712.90
2018-07-31T09:27:35.887Z,97707.58
2018-07-31T09:30:05.407Z,97713.54
2018-07-31T09:33:07.459Z,97718.19
2018-07-31T09:35:37.319Z,97712.11
2018-07-31T09:38:06.719Z,97722.53
2018-07-31T09:40:35.735Z,97714.77
2018-07-31T09:43:04.870Z,97721.27
2018-07-31T09:45:34.039Z,97716.20
2018-07-31T09:48:03.383Z,97713.20
2018-07-31T09:50:32.616Z,97715.25
2018-07-31T09:53:01.873Z,97713.84
2018-07-31T09:55:31.083Z,97713.20
2018-07-31T09:58:00.215Z,97711.41
2018-07-31T10:00:34.220Z,97706.67
2018-07-31T10:03:03.328Z,97708.78
2018-07-31T10:05:32.452Z,97702.64
2018-07-31T10:08:01.471Z,97705.94
2018-07-31T10:10:30.717Z,97703.16
2018-07-31T10:13:00.073Z,97696.69
2018-07-31T10:15:29.183Z,97702.86
2018-07-31T10:17:58.567Z,97700.91
2018-07-31T10:20:27.363Z,97706.20
2018-07-31T10:22:56.286Z,97700.06
2018-07-31T10:25:25.564Z,97702.44
2018-07-31T10:27:54.808Z,97702.42
2018-07-31T10:30:24.272Z,97708.20
2018-07-31T10:32:53.443Z,97704.34
2018-07-31T10:35:22.558Z,97701.80
2018-07-31T10:37:51.554Z,97704.38
2018-07-31T10:40:20.486Z,97705.39
2018-07-31T10:42:49.670Z,97700.13
2018-07-31T10:45:18.892Z,97713.06
2018-07-31T10:47:48.021Z,97698.86
2018-07-31T10:50:17.268Z,97704.41
2018-07-31T10:52:46.435Z,97703.38
2018-07-31T10:55:15.558Z,97705.72
2018-07-31T10:57:44.770Z,97698.28
2018-07-31T11:00:13.942Z,97694.38
2018-07-31T11:02:43.067Z,97698.98
2018-07-31T11:05:12.237Z,97694.70
2018-07-31T11:07:41.245Z,97703.97
2018-07-31T11:10:10.560Z,97683.89
2018-07-31T11:12:39.567Z,97686.22
2018-07-31T11:15:08.562Z,97688.69
2018-07-31T11:17:37.758Z,97692.13
2018-07-31T11:20:06.914Z,97691.61
2018-07-31T11:22:36.267Z,97695.39
2018-07-31T11:25:06.093Z,97700.53
2018-07-31T11:27:35.166Z,97704.28
2018-07-31T11:30:05.868Z,97702.93
2018-07-31T11:32:35.067Z,97700.70
2018-07-31T11:35:04.430Z,97706.94
2018-07-31T11:37:33.239Z,97703.22
2018-07-31T11:40:02.096Z,97711.31
2018-07-31T11:42:31.180Z,97706.73
2018-07-31T11:45:00.319Z,97708.28
2018-07-31T11:47:29.706Z,97701.75
2018-07-31T11:49:59.019Z,97699.12
2018-07-31T11:52:28.299Z,97702.40
2018-07-31T11:54:57.371Z,97699.63
2018-07-31T11:57:26.634Z,97698.82
2018-07-31T11:59:55.906Z,97700.03
2018-07-31T12:02:25.206Z,97692.73
2018-07-31T12:04:54.487Z,97692.88
2018-07-31T12:07:23.608Z,97688.05
2018-07-31T12:09:52.588Z,97690.08
2018-07-31T12:12:21.541Z,97691.95
2018-07-31T12:14:50.384Z,97698.91
2018-07-31T12:17:19.585Z,97703.72
2018-07-31T12:19:48.834Z,97709.31
2018-07-31T12:22:17.953Z,97708.30
2018-07-31T12:24:46.809Z,97709.14
2018-07-31T12:27:16.098Z,97708.11
2018-07-31T12:29:45.291Z,97704.06
2018-07-31T12:32:14.586Z,97692.23
2018-07-31T12:34:43.690Z,97685.34
2018-07-31T12:37:13.085Z,97678.08
2018-07-31T12:39:42.155Z,97674.06
2018-07-31T12:42:11.439Z,97682.17
2018-07-31T12:44:40.446Z,97681.19
2018-07-31T12:47:09.608Z,97685.59
2018-07-31T12:49:38.511Z,97685.96
2018-07-31T12:52:07.968Z,97674.47
2018-07-31T12:54:36.991Z,97678.31
2018-07-31T12:57:06.261Z,97676.52
2018-07-31T12:59:35.348Z,97681.95
2018-07-31T13:02:04.494Z,97683.47
2018-07-31T13:04:33.686Z,97681.41
2018-07-31T13:07:02.740Z,97676.78
2018-07-31T13:09:31.819Z,97682.50
2018-07-31T13:12:00.790Z,97687.44
2018-07-31T13:14:29.886Z,97684.81
2018-07-31T13:16:58.645Z,97678.16
2018-07-31T13:19:27.841Z,97680.38
2018-07-31T13:21:57.380Z,97681.03
2018-07-31T13:24:26.642Z,97678.30
2018-07-31T13:26:55.950Z,97669.94
2018-07-31T13:29:25.248Z,97672.70
2018-07-31T13:31:54.502Z,97670.28
2018-07-31T13:34:23.409Z,97668.91
2018-07-31T13:36:52.212Z,97671.27
2018-07-31T13:39:21.299Z,97670.86
2018-07-31T13:41:50.597Z,97684.78
2018-07-31T13:44:19.855Z,97690.77
2018-07-31T13:46:48.971Z,97689.01
2018-07-31T13:49:18.196Z,97689.78
2018-07-31T13:51:47.210Z,97687.91
2018-07-31T13:54:16.495Z,97683.89
2018-07-31T13:56:45.735Z,97687.31
2018-07-31T13:59:15.005Z,97686.36
2018-07-31T14:01:43.958Z,97679.64
2018-07-31T14:04:12.906Z,97688.69
2018-07-31T14:06:42.004Z,97674.38
2018-07-31T14:09:11.786Z,97685.34
2018-07-31T14:11:41.064Z,97674.82
2018-07-31T14:14:10.274Z,97670.97
2018-07-31T14:16:39.358Z,97670.34
2018-07-31T14:19:08.282Z,97671.41
2018-07-31T14:21:37.299Z,97652.42
2018-07-31T14:24:06.539Z,97658.52
2018-07-31T14:26:35.767Z,97650.14
2018-07-31T14:29:05.034Z,97649.06
2018-07-31T14:31:34.218Z,97649.23
2018-07-31T14:34:03.060Z,97644.31
2018-07-31T14:36:32.327Z,97642.23
2018-07-31T14:39:01.649Z,97640.55
2018-07-31T14:41:30.799Z,97631.63
2018-07-31T14:43:59.768Z,97638.84
2018-07-31T14:46:28.851Z,97631.56
2018-07-31T14:48:57.630Z,97630.48
2018-07-31T14:51:26.509Z,97637.80
2018-07-31T14:53:55.747Z,97637.08
2018-07-31T14:56:24.983Z,97634.47
2018-07-31T14:58:54.101Z,97631.00
2018-07-31T15:01:22.863Z,97623.39
2018-07-31T15:03:51.749Z,97633.63
2018-07-31T15:06:20.957Z,97630.80
2018-07-31T15:08:49.903Z,97631.67
2018-07-31T15:11:19.170Z,97625.89
2018-07-31T15:13:48.104Z,97623.66
2018-07-31T15:16:17.218Z,97622.70
2018-07-31T15:18:46.507Z,97624.45
2018-07-31T15:21:15.504Z,97634.33
2018-07-31T15:23:44.710Z,97639.63
2018-07-31T15:26:13.803Z,97635.11
2018-07-31T15:28:42.860Z,97641.02
2018-07-31T15:31:12.035Z,97639.70
2018-07-31T15:33:41.189Z,97637.86
2018-07-31T15:36:10.426Z,97638.56
2018-07-31T15:38:39.579Z,97641.62
2018-07-31T15:41:08.923Z,97647.72
2018-07-31T15:43:37.614Z,97643.99
2018-07-31T15:46:06.920Z,97648.06
2018-07-31T15:48:35.746Z,97646.36
2018-07-31T15:51:04.670Z,97654.80
2018-07-31T15:53:34.000Z,97657.83
2018-07-31T15:56:03.246Z,97662.88
2018-07-31T15:58:32.094Z,97664.84
2018-07-31T16:01:01.356Z,97664.83
2018-07-31T16:03:30.221Z,97671.92
2018-07-31T16:05:59.381Z,97680.34
2018-07-31T16:08:28.412Z,97690.11
2018-07-31T16:10:57.457Z,97691.11
2018-07-31T16:13:26.338Z,97689.07
2018-07-31T16:15:55.452Z,97694.61
2018-07-31T16:18:24.730Z,97695.30
2018-07-31T16:20:53.960Z,97698.16
2018-07-31T16:23:23.128Z,97697.12
2018-07-31T16:25:52.306Z,97696.10
2018-07-31T16:28:21.363Z,97697.86
2018-07-31T16:30:50.711Z,97707.98
2018-07-31T16:33:19.574Z,97716.70
2018-07-31T16:35:48.655Z,97716.90
2018-07-31T16:38:17.670Z,97714.27
2018-07-31T16:40:46.927Z,97714.00
2018-07-31T16:43:16.170Z,97713.19
2018-07-31T16:45:45.426Z,97709.88
2018-07-31T16:48:14.570Z,97717.67
2018-07-31T16:50:43.570Z,97717.84
2018-07-31T16:53:12.368Z,97719.31
2018-07-31T16:55:41.236Z,97715.96
2018-07-31T16:58:10.545Z,97730.45
2018-07-31T17:00:39.638Z,97731.23
2018-07-31T17:03:08.522Z,97731.22
2018-07-31T17:05:37.614Z,97735.38
2018-07-31T17:08:06.662Z,97736.14
2018-07-31T17:10:35.858Z,97738.77
2018-07-31T17:13:04.771Z,97734.78
2018-07-31T17:15:34.032Z,97736.84
2018-07-31T17:18:02.875Z,97730.27
2018-07-31T17:20:31.661Z,97732.11
2018-07-31T17:23:00.868Z,97737.79
2018-07-31T17:25:30.029Z,97735.09
2018-07-31T17:27:59.031Z,97741.84
2018-07-31T17:30:27.821Z,97744.16
2018-07-31T17:32:57.037Z,97748.09
2018-07-31T17:35:26.402Z,97752.03
2018-07-31T17:37:55.387Z,97758.27
2018-07-31T17:40:24.574Z,97758.05
2018-07-31T17:42:53.722Z,97763.72
2018-07-31T17:45:22.810Z,97754.55
2018-07-31T17:47:51.677Z,97753.80
2018-07-31T17:50:20.851Z,97756.78
2018-07-31T17:52:49.996Z,97753.83
2018-07-31T17:55:19.178Z,97749.68
2018-07-31T17:57:48.359Z,97758.02
2018-07-31T18:00:17.738Z,97756.31
2018-07-31T18:02:46.700Z,97753.33
2018-07-31T18:05:15.791Z,97753.29
2018-07-31T18:07:45.072Z,97753.29
2018-07-31T18:10:14.219Z,97749.18
2018-07-31T18:12:43.587Z,97749.77
2018-07-31T18:15:12.684Z,97756.73
2018-07-31T18:17:41.858Z,97757.73
2018-07-31T18:20:11.111Z,97770.15
2018-07-31T18:22:40.258Z,97763.66
2018-07-31T18:25:09.355Z,97770.16
2018-07-31T18:27:38.606Z,97769.45
2018-07-31T18:30:07.992Z,97771.42
2018-07-31T18:32:37.207Z,97776.94
2018-07-31T18:35:06.290Z,97783.31
2018-07-31T18:37:35.436Z,97790.13
2018-07-31T18:40:04.548Z,97793.38
2018-07-31T18:42:33.678Z,97798.06
2018-07-31T18:45:02.819Z,97798.95
2018-07-31T18:47:31.879Z,97797.86
2018-07-31T18:50:01.195Z,97797.52
2018-07-31T18:52:30.416Z,97799.61
2018-07-31T18:54:59.584Z,97798.95
2018-07-31T18:57:28.774Z,97792.39
2018-07-31T18:59:57.587Z,97792.78
2018-07-31T19:02:26.738Z,97790.25
2018-07-31T19:04:55.941Z,97780.71
2018-07-31T19:07:25.224Z,97780.29
2018-07-31T19:09:54.617Z,97777.23
2018-07-31T19:12:23.430Z,97776.69
2018-07-31T19:14:53.692Z,97778.14
2018-07-31T19:17:23.068Z,97782.83
2018-07-31T19:19:52.338Z,97783.94
2018-07-31T19:22:21.641Z,97781.03
2018-07-31T19:24:50.972Z,97788.30
2018-07-31T19:27:20.216Z,97787.59
2018-07-31T19:29:49.542Z,97796.63
2018-07-31T19:32:18.716Z,97794.38
2018-07-31T19:34:48.127Z,97793.90
2018-07-31T19:37:17.303Z,97785.19
2018-07-31T19:39:46.314Z,97780.83
2018-07-31T19:42:15.788Z,97784.76
2018-07-31T19:44:45.912Z,97777.97
2018-07-31T19:47:14.892Z,97780.02
2018-07-31T19:49:44.278Z,97774.94
2018-07-31T19:52:14.010Z,97771.20
2018-07-31T19:54:43.230Z,97767.52
2018-07-31T19:57:12.202Z,97765.76
2018-07-31T19:59:41.489Z,97761.88
2018-07-31T20:02:10.457Z,97760.67
2018-07-31T20:04:40.493Z,97759.05
2018-07-31T20:07:09.639Z,97758.24
2018-07-31T20:09:38.931Z,97756.37
2018-07-31T20:12:08.378Z,97755.31
2018-07-31T20:14:37.745Z,97763.27
2018-07-31T20:17:06.896Z,97761.20
2018-07-31T20:19:35.793Z,97764.03
2018-07-31T20:22:05.110Z,97772.06
2018-07-31T20:24:34.296Z,97773.55
2018-07-31T20:27:03.525Z,97772.83
2018-07-31T20:29:32.802Z,97777.14
2018-07-31T20:32:02.036Z,97777.23
2018-07-31T20:34:30.785Z,97779.15
2018-07-31T20:36:59.959Z,97790.74
2018-07-31T20:39:29.079Z,97790.52
2018-07-31T20:41:58.144Z,97782.02
2018-07-31T20:44:27.275Z,97785.87
2018-07-31T20:46:56.181Z,97787.03
2018-07-31T20:49:25.510Z,97791.26
2018-07-31T20:51:54.678Z,97781.95
2018-07-31T20:54:23.496Z,97786.22
2018-07-31T20:56:52.786Z,97798.84
2018-07-31T20:59:21.906Z,97802.14
2018-07-31T21:01:51.123Z,97806.73
2018-07-31T21:04:20.336Z,97809.67
2018-07-31T21:06:49.658Z,97806.19
2018-07-31T21:09:20.571Z,97802.59
2018-07-31T21:11:50.633Z,97800.63
2018-07-31T21:14:19.670Z,97794.80
2018-07-31T21:16:48.614Z,97783.19
2018-07-31T21:19:17.517Z,97778.18
2018-07-31T21:21:46.787Z,97778.18
2018-07-31T21:24:16.048Z,97780.06
2018-07-31T21:26:45.242Z,97784.88
2018-07-31T21:29:14.473Z,97779.65
2018-07-31T21:31:43.523Z,97782.36
2018-07-31T21:34:12.630Z,97784.15
2018-07-31T21:36:41.814Z,97780.81
2018-07-31T21:39:12.415Z,97783.52
2018-07-31T21:41:41.939Z,97771.91
2018-07-31T21:44:11.617Z,97779.23
2018-07-31T21:46:40.793Z,97777.30
2018-07-31T21:49:10.234Z,97784.74
2018-07-31T21:51:39.526Z,97792.64
2018-07-31T21:54:08.454Z,97784.39
2018-07-31T21:56:37.646Z,97787.62
2018-07-31T21:59:06.727Z,97784.39
2018-07-31T22:01:35.998Z,97789.42
2018-07-31T22:04:05.202Z,97781.17
2018-07-31T22:06:34.398Z,97781.64
2018-07-31T22:09:03.747Z,97776.37
2018-07-31T22:11:33.103Z,97784.87
2018-07-31T22:14:02.004Z,97784.39
2018-07-31T22:16:31.011Z,97780.50
2018-07-31T22:19:00.269Z,97770.81
2018-07-31T22:21:29.374Z,97766.86
2018-07-31T22:23:58.507Z,97772.69
2018-07-31T22:26:27.546Z,97762.66
2018-07-31T22:28:56.719Z,97770.76
2018-07-31T22:31:25.601Z,97770.61
2018-07-31T22:33:54.709Z,97769.90
2018-07-31T22:36:23.838Z,97763.34
2018-07-31T22:38:53.044Z,97763.88
2018-07-31T22:41:22.318Z,97760.86
2018-07-31T22:43:51.435Z,97770.76
2018-07-31T22:46:20.519Z,97763.14
2018-07-31T22:48:49.523Z,97767.87
2018-07-31T22:51:18.520Z,97762.98
2018-07-31T22:53:47.690Z,97761.67
2018-07-31T22:56:16.934Z,97762.39
2018-07-31T22:58:46.209Z,97758.13
2018-07-31T23:01:15.171Z,97756.30
2018-07-31T23:03:44.377Z,97751.42
2018-07-31T23:06:13.267Z,97744.59
2018-07-31T23:08:42.155Z,97748.20
2018-07-31T23:11:11.305Z,97742.36
2018-07-31T23:13:40.550Z,97738.19
2018-07-31T23:16:09.794Z,97742.66
2018-07-31T23:18:39.130Z,97743.64
2018-07-31T23:21:08.534Z,97752.71
2018-07-31T23:23:37.558Z,97750.99
2018-07-31T23:26:06.844Z,97751.80
2018-07-31T23:28:35.795Z,97751.81
2018-07-31T23:31:04.911Z,97748.41
2018-07-31T23:33:34.192Z,97740.89
2018-07-31T23:36:03.370Z,97743.20
2018-07-31T23:38:32.578Z,97746.27
2018-07-31T23:41:01.592Z,97739.33
2018-07-31T23:43:30.581Z,97739.64
2018-07-31T23:45:59.702Z,97753.77
2018-07-31T23:48:28.687Z,97748.61
2018-07-31T23:50:57.786Z,97752.41
2018-07-31T23:53:26.860Z,97753.64
2018-07-31T23:55:55.968Z,97760.96
2018-07-31T23:58:25.209Z,97769.90
